sensor_id;sensor_type;location;lat;lon;timestamp;P1;durP1;ratioP1;P2;durP2;ratioP2
35919;SDS011;36160;53.370;-6.196;2022-11-21T00:00:33;20.88;;;4.05;;
35919;SDS011;36160;53.370;-6.196;2022-11-21T00:03:00;18.00;;;3.60;;
35919;SDS011;36160;53.370;-6.196;2022-11-21T00:05:26;21.58;;;4.25;;
35919;SDS011;36160;53.370;-6.196;2022-11-21T00:07:53;17.52;;;3.63;;
35919;SDS011;36160;53.370;-6.196;2022-11-21T00:10:19;20.38;;;3.35;;
35919;SDS011;36160;53.370;-6.196;2022-11-21T00:12:46;23.05;;;4.55;;
35919;SDS011;36160;53.370;-6.196;2022-11-21T00:15:12;19.35;;;3.55;;
35919;SDS011;36160;53.370;-6.196;2022-11-21T00:17:37;23.90;;;4.03;;
35919;SDS011;36160;53.370;-6.196;2022-11-21T00:20:03;17.15;;;3.80;;
35919;SDS011;36160;53.370;-6.196;2022-11-21T00:22:30;29.75;;;4.32;;
35919;SDS011;36160;53.370;-6.196;2022-11-21T00:24:56;25.10;;;3.67;;
35919;SDS011;36160;53.370;-6.196;2022-11-21T00:27:22;31.85;;;4.28;;
35919;SDS011;36160;53.370;-6.196;2022-11-21T00:29:48;19.80;;;5.03;;
35919;SDS011;36160;53.370;-6.196;2022-11-21T00:32:14;26.10;;;4.13;;
35919;SDS011;36160;53.370;-6.196;2022-11-21T00:34:39;20.33;;;3.92;;
35919;SDS011;36160;53.370;-6.196;2022-11-21T00:37:05;28.90;;;3.75;;
35919;SDS011;36160;53.370;-6.196;2022-11-21T00:39:30;24.52;;;4.97;;
35919;SDS011;36160;53.370;-6.196;2022-11-21T00:41:56;24.65;;;5.22;;
35919;SDS011;36160;53.370;-6.196;2022-11-21T00:44:22;17.25;;;3.50;;
35919;SDS011;36160;53.370;-6.196;2022-11-21T00:46:47;27.20;;;3.75;;
35919;SDS011;36160;53.370;-6.196;2022-11-21T00:49:13;21.05;;;3.80;;
35919;SDS011;36160;53.370;-6.196;2022-11-21T00:51:38;23.77;;;3.90;;
35919;SDS011;36160;53.370;-6.196;2022-11-21T00:54:04;28.33;;;3.80;;
35919;SDS011;36160;53.370;-6.196;2022-11-21T00:56:30;26.05;;;4.15;;
35919;SDS011;36160;53.370;-6.196;2022-11-21T00:58:55;25.83;;;4.43;;
35919;SDS011;36160;53.370;-6.196;2022-11-21T01:01:21;27.38;;;5.25;;
35919;SDS011;36160;53.370;-6.196;2022-11-21T01:03:47;29.50;;;3.65;;
35919;SDS011;36160;53.370;-6.196;2022-11-21T01:06:13;35.50;;;5.45;;
35919;SDS011;36160;53.370;-6.196;2022-11-21T01:08:40;25.20;;;3.65;;
35919;SDS011;36160;53.370;-6.196;2022-11-21T01:11:08;17.85;;;3.95;;
35919;SDS011;36160;53.370;-6.196;2022-11-21T01:13:39;26.08;;;4.75;;
35919;SDS011;36160;53.370;-6.196;2022-11-21T01:16:06;23.00;;;4.22;;
35919;SDS011;36160;53.370;-6.196;2022-11-21T01:18:34;20.10;;;3.40;;
35919;SDS011;36160;53.370;-6.196;2022-11-21T01:21:01;23.60;;;4.05;;
35919;SDS011;36160;53.370;-6.196;2022-11-21T01:23:31;27.48;;;6.10;;
35919;SDS011;36160;53.370;-6.196;2022-11-21T01:26:04;20.33;;;4.55;;
35919;SDS011;36160;53.370;-6.196;2022-11-21T01:28:32;27.85;;;4.88;;
35919;SDS011;36160;53.370;-6.196;2022-11-21T01:31:11;22.58;;;4.78;;
35919;SDS011;36160;53.370;-6.196;2022-11-21T01:33:38;31.80;;;5.03;;
35919;SDS011;36160;53.370;-6.196;2022-11-21T01:36:08;25.25;;;4.85;;
35919;SDS011;36160;53.370;-6.196;2022-11-21T01:38:39;17.45;;;3.50;;
35919;SDS011;36160;53.370;-6.196;2022-11-21T01:41:07;26.33;;;3.67;;
35919;SDS011;36160;53.370;-6.196;2022-11-21T01:43:33;25.45;;;5.18;;
35919;SDS011;36160;53.370;-6.196;2022-11-21T01:46:00;33.85;;;5.30;;
35919;SDS011;36160;53.370;-6.196;2022-11-21T01:48:30;22.00;;;4.07;;
35919;SDS011;36160;53.370;-6.196;2022-11-21T01:51:23;24.85;;;3.90;;
35919;SDS011;36160;53.370;-6.196;2022-11-21T01:53:57;27.85;;;4.32;;
35919;SDS011;36160;53.370;-6.196;2022-11-21T01:56:24;22.35;;;4.38;;
35919;SDS011;36160;53.370;-6.196;2022-11-21T01:58:51;32.00;;;5.40;;
35919;SDS011;36160;53.370;-6.196;2022-11-21T02:01:20;36.13;;;4.22;;
35919;SDS011;36160;53.370;-6.196;2022-11-21T02:03:46;32.05;;;4.38;;
35919;SDS011;36160;53.370;-6.196;2022-11-21T02:06:13;28.00;;;4.22;;
35919;SDS011;36160;53.370;-6.196;2022-11-21T02:08:39;24.10;;;4.15;;
35919;SDS011;36160;53.370;-6.196;2022-11-21T02:11:09;29.00;;;3.90;;
35919;SDS011;36160;53.370;-6.196;2022-11-21T02:13:39;25.42;;;5.97;;
35919;SDS011;36160;53.370;-6.196;2022-11-21T02:16:05;16.63;;;4.03;;
35919;SDS011;36160;53.370;-6.196;2022-11-21T02:18:31;19.30;;;4.05;;
35919;SDS011;36160;53.370;-6.196;2022-11-21T02:20:59;18.33;;;3.45;;
35919;SDS011;36160;53.370;-6.196;2022-11-21T02:23:53;15.80;;;3.10;;
35919;SDS011;36160;53.370;-6.196;2022-11-21T02:26:45;9.85;;;2.28;;
35919;SDS011;36160;53.370;-6.196;2022-11-21T02:29:13;10.40;;;2.92;;
35919;SDS011;36160;53.370;-6.196;2022-11-21T02:31:38;20.40;;;2.97;;
35919;SDS011;36160;53.370;-6.196;2022-11-21T02:34:04;20.60;;;2.83;;
35919;SDS011;36160;53.370;-6.196;2022-11-21T02:39:04;18.55;;;3.13;;
35919;SDS011;36160;53.370;-6.196;2022-11-21T02:41:35;15.93;;;3.42;;
35919;SDS011;36160;53.370;-6.196;2022-11-21T02:44:05;21.50;;;3.67;;
35919;SDS011;36160;53.370;-6.196;2022-11-21T02:46:44;16.35;;;3.58;;
35919;SDS011;36160;53.370;-6.196;2022-11-21T02:49:12;27.30;;;4.05;;
35919;SDS011;36160;53.370;-6.196;2022-11-21T02:51:38;29.65;;;4.38;;
35919;SDS011;36160;53.370;-6.196;2022-11-21T02:54:04;24.60;;;4.20;;
35919;SDS011;36160;53.370;-6.196;2022-11-21T02:56:30;14.93;;;3.45;;
35919;SDS011;36160;53.370;-6.196;2022-11-21T02:58:55;22.17;;;3.45;;
35919;SDS011;36160;53.370;-6.196;2022-11-21T03:01:21;29.17;;;4.38;;
35919;SDS011;36160;53.370;-6.196;2022-11-21T03:03:46;20.27;;;3.45;;
35919;SDS011;36160;53.370;-6.196;2022-11-21T03:06:12;13.38;;;3.58;;
35919;SDS011;36160;53.370;-6.196;2022-11-21T03:08:38;29.77;;;3.88;;
35919;SDS011;36160;53.370;-6.196;2022-11-21T03:11:03;29.08;;;4.50;;
35919;SDS011;36160;53.370;-6.196;2022-11-21T03:13:29;29.27;;;3.88;;
35919;SDS011;36160;53.370;-6.196;2022-11-21T03:15:55;28.55;;;4.88;;
35919;SDS011;36160;53.370;-6.196;2022-11-21T03:18:20;27.15;;;4.18;;
35919;SDS011;36160;53.370;-6.196;2022-11-21T03:20:46;23.60;;;4.65;;
35919;SDS011;36160;53.370;-6.196;2022-11-21T03:23:11;27.27;;;4.15;;
35919;SDS011;36160;53.370;-6.196;2022-11-21T03:25:37;24.92;;;4.20;;
35919;SDS011;36160;53.370;-6.196;2022-11-21T03:28:03;26.80;;;4.15;;
35919;SDS011;36160;53.370;-6.196;2022-11-21T03:30:28;27.05;;;4.63;;
35919;SDS011;36160;53.370;-6.196;2022-11-21T03:32:54;28.92;;;4.22;;
35919;SDS011;36160;53.370;-6.196;2022-11-21T03:35:21;37.28;;;5.32;;
35919;SDS011;36160;53.370;-6.196;2022-11-21T03:37:47;53.63;;;9.77;;
35919;SDS011;36160;53.370;-6.196;2022-11-21T03:40:13;28.08;;;5.80;;
35919;SDS011;36160;53.370;-6.196;2022-11-21T03:42:38;28.60;;;4.40;;
35919;SDS011;36160;53.370;-6.196;2022-11-21T03:45:04;38.42;;;6.63;;
35919;SDS011;36160;53.370;-6.196;2022-11-21T03:47:30;47.85;;;7.55;;
35919;SDS011;36160;53.370;-6.196;2022-11-21T03:49:56;47.45;;;5.90;;
35919;SDS011;36160;53.370;-6.196;2022-11-21T03:52:22;45.58;;;8.77;;
35919;SDS011;36160;53.370;-6.196;2022-11-21T03:54:47;38.25;;;6.85;;
35919;SDS011;36160;53.370;-6.196;2022-11-21T03:57:13;41.53;;;6.32;;
35919;SDS011;36160;53.370;-6.196;2022-11-21T03:59:39;39.72;;;8.07;;
35919;SDS011;36160;53.370;-6.196;2022-11-21T04:02:04;44.13;;;6.15;;
35919;SDS011;36160;53.370;-6.196;2022-11-21T04:04:30;49.05;;;6.65;;
35919;SDS011;36160;53.370;-6.196;2022-11-21T04:06:55;45.95;;;6.22;;
35919;SDS011;36160;53.370;-6.196;2022-11-21T04:09:21;34.33;;;6.63;;
35919;SDS011;36160;53.370;-6.196;2022-11-21T04:11:47;48.10;;;6.43;;
35919;SDS011;36160;53.370;-6.196;2022-11-21T04:14:12;37.30;;;6.20;;
35919;SDS011;36160;53.370;-6.196;2022-11-21T04:16:38;38.83;;;6.85;;
35919;SDS011;36160;53.370;-6.196;2022-11-21T04:19:03;31.40;;;7.18;;
35919;SDS011;36160;53.370;-6.196;2022-11-21T04:21:29;42.30;;;5.57;;
35919;SDS011;36160;53.370;-6.196;2022-11-21T04:23:55;39.22;;;6.00;;
35919;SDS011;36160;53.370;-6.196;2022-11-21T04:26:20;30.52;;;6.40;;
35919;SDS011;36160;53.370;-6.196;2022-11-21T04:28:46;38.30;;;6.13;;
35919;SDS011;36160;53.370;-6.196;2022-11-21T04:31:12;43.67;;;5.57;;
35919;SDS011;36160;53.370;-6.196;2022-11-21T04:33:37;34.20;;;5.88;;
35919;SDS011;36160;53.370;-6.196;2022-11-21T04:36:04;37.92;;;7.03;;
35919;SDS011;36160;53.370;-6.196;2022-11-21T04:38:30;47.30;;;6.72;;
35919;SDS011;36160;53.370;-6.196;2022-11-21T04:40:56;36.22;;;5.68;;
35919;SDS011;36160;53.370;-6.196;2022-11-21T04:43:22;42.47;;;8.57;;
35919;SDS011;36160;53.370;-6.196;2022-11-21T04:45:47;45.58;;;6.15;;
35919;SDS011;36160;53.370;-6.196;2022-11-21T04:48:13;46.08;;;5.60;;
35919;SDS011;36160;53.370;-6.196;2022-11-21T04:50:39;39.28;;;6.60;;
35919;SDS011;36160;53.370;-6.196;2022-11-21T04:53:04;45.72;;;9.00;;
35919;SDS011;36160;53.370;-6.196;2022-11-21T04:55:30;40.03;;;6.00;;
35919;SDS011;36160;53.370;-6.196;2022-11-21T04:57:57;34.22;;;7.55;;
35919;SDS011;36160;53.370;-6.196;2022-11-21T05:00:23;52.55;;;8.68;;
35919;SDS011;36160;53.370;-6.196;2022-11-21T05:02:48;55.10;;;7.13;;
35919;SDS011;36160;53.370;-6.196;2022-11-21T05:05:14;44.30;;;7.63;;
35919;SDS011;36160;53.370;-6.196;2022-11-21T05:07:40;45.08;;;7.93;;
35919;SDS011;36160;53.370;-6.196;2022-11-21T05:10:06;57.60;;;7.55;;
35919;SDS011;36160;53.370;-6.196;2022-11-21T05:12:32;47.33;;;6.57;;
35919;SDS011;36160;53.370;-6.196;2022-11-21T05:15:17;27.98;;;3.55;;
35919;SDS011;36160;53.370;-6.196;2022-11-21T05:17:43;27.02;;;5.07;;
35919;SDS011;36160;53.370;-6.196;2022-11-21T05:20:09;40.25;;;5.95;;
35919;SDS011;36160;53.370;-6.196;2022-11-21T05:22:35;36.63;;;4.72;;
35919;SDS011;36160;53.370;-6.196;2022-11-21T05:25:01;33.17;;;3.90;;
35919;SDS011;36160;53.370;-6.196;2022-11-21T05:27:28;32.25;;;3.88;;
35919;SDS011;36160;53.370;-6.196;2022-11-21T05:29:53;38.60;;;7.70;;
35919;SDS011;36160;53.370;-6.196;2022-11-21T05:32:19;34.47;;;5.60;;
35919;SDS011;36160;53.370;-6.196;2022-11-21T05:34:45;41.00;;;5.53;;
35919;SDS011;36160;53.370;-6.196;2022-11-21T05:37:11;37.20;;;4.72;;
35919;SDS011;36160;53.370;-6.196;2022-11-21T05:39:36;40.78;;;5.97;;
35919;SDS011;36160;53.370;-6.196;2022-11-21T05:42:02;54.55;;;8.15;;
35919;SDS011;36160;53.370;-6.196;2022-11-21T05:44:28;36.80;;;6.32;;
35919;SDS011;36160;53.370;-6.196;2022-11-21T05:46:53;48.75;;;5.53;;
35919;SDS011;36160;53.370;-6.196;2022-11-21T05:49:19;42.17;;;6.85;;
35919;SDS011;36160;53.370;-6.196;2022-11-21T05:51:45;45.13;;;7.97;;
35919;SDS011;36160;53.370;-6.196;2022-11-21T05:54:14;51.67;;;6.97;;
35919;SDS011;36160;53.370;-6.196;2022-11-21T05:56:40;38.05;;;6.00;;
35919;SDS011;36160;53.370;-6.196;2022-11-21T05:59:07;63.10;;;6.45;;
35919;SDS011;36160;53.370;-6.196;2022-11-21T06:01:34;77.88;;;11.95;;
35919;SDS011;36160;53.370;-6.196;2022-11-21T06:04:18;62.78;;;9.13;;
35919;SDS011;36160;53.370;-6.196;2022-11-21T06:06:44;69.95;;;9.10;;
35919;SDS011;36160;53.370;-6.196;2022-11-21T06:09:10;71.50;;;9.05;;
35919;SDS011;36160;53.370;-6.196;2022-11-21T06:11:35;55.65;;;7.63;;
35919;SDS011;36160;53.370;-6.196;2022-11-21T06:14:01;38.88;;;6.32;;
35919;SDS011;36160;53.370;-6.196;2022-11-21T06:16:27;62.60;;;7.25;;
35919;SDS011;36160;53.370;-6.196;2022-11-21T06:18:53;53.28;;;9.88;;
35919;SDS011;36160;53.370;-6.196;2022-11-21T06:21:23;46.55;;;7.22;;
35919;SDS011;36160;53.370;-6.196;2022-11-21T06:23:51;56.17;;;7.00;;
35919;SDS011;36160;53.370;-6.196;2022-11-21T06:26:19;44.00;;;6.78;;
35919;SDS011;36160;53.370;-6.196;2022-11-21T06:28:47;54.10;;;8.05;;
35919;SDS011;36160;53.370;-6.196;2022-11-21T06:33:40;45.55;;;5.72;;
35919;SDS011;36160;53.370;-6.196;2022-11-21T06:36:08;40.35;;;5.05;;
35919;SDS011;36160;53.370;-6.196;2022-11-21T06:43:30;54.90;;;6.80;;
35919;SDS011;36160;53.370;-6.196;2022-11-21T06:45:56;42.95;;;8.38;;
35919;SDS011;36160;53.370;-6.196;2022-11-21T06:48:22;48.85;;;8.23;;
35919;SDS011;36160;53.370;-6.196;2022-11-21T06:50:48;57.17;;;7.00;;
35919;SDS011;36160;53.370;-6.196;2022-11-21T06:53:14;44.47;;;6.40;;
35919;SDS011;36160;53.370;-6.196;2022-11-21T06:55:39;48.88;;;10.30;;
35919;SDS011;36160;53.370;-6.196;2022-11-21T06:58:05;32.15;;;4.03;;
35919;SDS011;36160;53.370;-6.196;2022-11-21T07:00:31;38.33;;;6.22;;
35919;SDS011;36160;53.370;-6.196;2022-11-21T07:03:00;23.42;;;4.25;;
35919;SDS011;36160;53.370;-6.196;2022-11-21T07:05:26;36.70;;;5.55;;
35919;SDS011;36160;53.370;-6.196;2022-11-21T07:07:58;42.50;;;5.63;;
35919;SDS011;36160;53.370;-6.196;2022-11-21T07:10:25;22.42;;;2.67;;
35919;SDS011;36160;53.370;-6.196;2022-11-21T07:12:51;36.42;;;5.63;;
35919;SDS011;36160;53.370;-6.196;2022-11-21T07:15:39;46.20;;;6.35;;
35919;SDS011;36160;53.370;-6.196;2022-11-21T07:18:04;45.28;;;8.35;;
35919;SDS011;36160;53.370;-6.196;2022-11-21T07:20:30;61.17;;;8.10;;
35919;SDS011;36160;53.370;-6.196;2022-11-21T07:22:56;59.78;;;10.27;;
35919;SDS011;36160;53.370;-6.196;2022-11-21T07:25:21;75.20;;;12.50;;
35919;SDS011;36160;53.370;-6.196;2022-11-21T07:27:47;61.15;;;8.43;;
35919;SDS011;36160;53.370;-6.196;2022-11-21T07:30:13;36.70;;;6.13;;
35919;SDS011;36160;53.370;-6.196;2022-11-21T07:32:39;43.95;;;6.90;;
35919;SDS011;36160;53.370;-6.196;2022-11-21T07:35:05;62.65;;;5.97;;
35919;SDS011;36160;53.370;-6.196;2022-11-21T07:37:31;57.38;;;8.10;;
35919;SDS011;36160;53.370;-6.196;2022-11-21T07:39:57;47.97;;;7.80;;
35919;SDS011;36160;53.370;-6.196;2022-11-21T07:42:22;45.15;;;5.38;;
35919;SDS011;36160;53.370;-6.196;2022-11-21T07:44:48;25.08;;;4.55;;
35919;SDS011;36160;53.370;-6.196;2022-11-21T07:47:14;31.10;;;5.25;;
35919;SDS011;36160;53.370;-6.196;2022-11-21T07:49:39;28.33;;;3.85;;
35919;SDS011;36160;53.370;-6.196;2022-11-21T07:52:05;37.65;;;4.55;;
35919;SDS011;36160;53.370;-6.196;2022-11-21T07:54:31;30.05;;;5.55;;
35919;SDS011;36160;53.370;-6.196;2022-11-21T07:56:56;31.63;;;4.90;;
35919;SDS011;36160;53.370;-6.196;2022-11-21T07:59:22;43.97;;;6.60;;
35919;SDS011;36160;53.370;-6.196;2022-11-21T08:01:49;32.63;;;3.85;;
35919;SDS011;36160;53.370;-6.196;2022-11-21T08:04:16;37.10;;;5.18;;
35919;SDS011;36160;53.370;-6.196;2022-11-21T08:06:42;36.33;;;5.63;;
35919;SDS011;36160;53.370;-6.196;2022-11-21T08:09:07;49.63;;;7.38;;
35919;SDS011;36160;53.370;-6.196;2022-11-21T08:11:34;33.63;;;4.55;;
35919;SDS011;36160;53.370;-6.196;2022-11-21T08:14:00;36.17;;;6.32;;
35919;SDS011;36160;53.370;-6.196;2022-11-21T08:16:26;41.78;;;5.35;;
35919;SDS011;36160;53.370;-6.196;2022-11-21T08:18:53;28.40;;;5.65;;
35919;SDS011;36160;53.370;-6.196;2022-11-21T08:21:19;41.63;;;4.75;;
35919;SDS011;36160;53.370;-6.196;2022-11-21T08:23:44;51.65;;;6.20;;
35919;SDS011;36160;53.370;-6.196;2022-11-21T08:26:10;26.27;;;4.45;;
35919;SDS011;36160;53.370;-6.196;2022-11-21T08:28:36;38.47;;;6.78;;
35919;SDS011;36160;53.370;-6.196;2022-11-21T08:31:02;33.13;;;5.88;;
35919;SDS011;36160;53.370;-6.196;2022-11-21T08:33:30;43.58;;;5.43;;
35919;SDS011;36160;53.370;-6.196;2022-11-21T08:36:04;48.97;;;6.97;;
35919;SDS011;36160;53.370;-6.196;2022-11-21T08:38:30;39.38;;;5.90;;
35919;SDS011;36160;53.370;-6.196;2022-11-21T08:40:56;41.58;;;5.13;;
35919;SDS011;36160;53.370;-6.196;2022-11-21T08:43:41;42.33;;;5.80;;
35919;SDS011;36160;53.370;-6.196;2022-11-21T08:46:07;37.88;;;6.25;;
35919;SDS011;36160;53.370;-6.196;2022-11-21T08:48:32;36.33;;;5.28;;
35919;SDS011;36160;53.370;-6.196;2022-11-21T08:50:58;29.88;;;5.10;;
35919;SDS011;36160;53.370;-6.196;2022-11-21T08:53:25;34.90;;;5.70;;
35919;SDS011;36160;53.370;-6.196;2022-11-21T08:55:52;32.45;;;6.35;;
35919;SDS011;36160;53.370;-6.196;2022-11-21T08:58:18;36.10;;;5.75;;
35919;SDS011;36160;53.370;-6.196;2022-11-21T09:00:44;42.75;;;7.65;;
35919;SDS011;36160;53.370;-6.196;2022-11-21T09:03:10;37.20;;;4.38;;
35919;SDS011;36160;53.370;-6.196;2022-11-21T09:05:36;34.10;;;4.43;;
35919;SDS011;36160;53.370;-6.196;2022-11-21T09:08:02;36.42;;;5.78;;
35919;SDS011;36160;53.370;-6.196;2022-11-21T09:10:27;40.45;;;4.72;;
35919;SDS011;36160;53.370;-6.196;2022-11-21T09:12:57;45.80;;;6.25;;
35919;SDS011;36160;53.370;-6.196;2022-11-21T09:15:24;41.90;;;5.27;;
35919;SDS011;36160;53.370;-6.196;2022-11-21T09:18:09;33.25;;;5.45;;
35919;SDS011;36160;53.370;-6.196;2022-11-21T09:20:40;37.63;;;5.32;;
35919;SDS011;36160;53.370;-6.196;2022-11-21T09:23:07;39.47;;;6.55;;
35919;SDS011;36160;53.370;-6.196;2022-11-21T09:25:35;32.22;;;5.38;;
35919;SDS011;36160;53.370;-6.196;2022-11-21T09:28:01;44.83;;;6.28;;
35919;SDS011;36160;53.370;-6.196;2022-11-21T09:30:28;36.15;;;5.60;;
35919;SDS011;36160;53.370;-6.196;2022-11-21T09:32:58;29.08;;;5.85;;
35919;SDS011;36160;53.370;-6.196;2022-11-21T09:35:27;38.03;;;4.95;;
35919;SDS011;36160;53.370;-6.196;2022-11-21T09:37:53;47.38;;;7.00;;
35919;SDS011;36160;53.370;-6.196;2022-11-21T09:40:19;38.85;;;7.32;;
35919;SDS011;36160;53.370;-6.196;2022-11-21T09:45:30;38.25;;;5.18;;
35919;SDS011;36160;53.370;-6.196;2022-11-21T09:48:02;32.75;;;6.13;;
35919;SDS011;36160;53.370;-6.196;2022-11-21T09:53:29;46.60;;;8.55;;
35919;SDS011;36160;53.370;-6.196;2022-11-21T09:56:04;45.13;;;6.70;;
35919;SDS011;36160;53.370;-6.196;2022-11-21T09:58:36;41.95;;;7.70;;
35919;SDS011;36160;53.370;-6.196;2022-11-21T10:01:03;47.40;;;5.35;;
35919;SDS011;36160;53.370;-6.196;2022-11-21T10:03:35;36.47;;;5.10;;
35919;SDS011;36160;53.370;-6.196;2022-11-21T10:12:39;31.45;;;4.55;;
35919;SDS011;36160;53.370;-6.196;2022-11-21T10:18:03;7.20;;;1.27;;
35919;SDS011;36160;53.370;-6.196;2022-11-21T10:29:17;2.65;;;1.60;;
35919;SDS011;36160;53.370;-6.196;2022-11-21T10:31:48;5.45;;;0.93;;
35919;SDS011;36160;53.370;-6.196;2022-11-21T10:34:15;1.92;;;1.10;;
35919;SDS011;36160;53.370;-6.196;2022-11-21T10:36:46;6.78;;;1.30;;
35919;SDS011;36160;53.370;-6.196;2022-11-21T10:39:19;6.38;;;1.52;;
35919;SDS011;36160;53.370;-6.196;2022-11-21T10:41:52;4.30;;;1.77;;
35919;SDS011;36160;53.370;-6.196;2022-11-21T10:44:26;9.25;;;2.53;;
35919;SDS011;36160;53.370;-6.196;2022-11-21T10:47:33;6.68;;;1.40;;
35919;SDS011;36160;53.370;-6.196;2022-11-21T10:52:35;3.15;;;1.30;;
35919;SDS011;36160;53.370;-6.196;2022-11-21T10:55:21;4.78;;;1.70;;
35919;SDS011;36160;53.370;-6.196;2022-11-21T10:57:50;6.53;;;2.15;;
35919;SDS011;36160;53.370;-6.196;2022-11-21T11:00:25;8.30;;;1.92;;
35919;SDS011;36160;53.370;-6.196;2022-11-21T11:05:21;3.88;;;1.63;;
35919;SDS011;36160;53.370;-6.196;2022-11-21T11:10:26;4.43;;;1.40;;
35919;SDS011;36160;53.370;-6.196;2022-11-21T11:12:53;8.68;;;1.67;;
35919;SDS011;36160;53.370;-6.196;2022-11-21T11:15:50;10.02;;;1.88;;
35919;SDS011;36160;53.370;-6.196;2022-11-21T11:18:26;7.82;;;2.00;;
35919;SDS011;36160;53.370;-6.196;2022-11-21T11:20:53;10.05;;;1.75;;
35919;SDS011;36160;53.370;-6.196;2022-11-21T11:23:46;11.98;;;1.83;;
35919;SDS011;36160;53.370;-6.196;2022-11-21T11:26:21;9.13;;;2.72;;
35919;SDS011;36160;53.370;-6.196;2022-11-21T11:28:51;7.82;;;1.45;;
35919;SDS011;36160;53.370;-6.196;2022-11-21T11:31:19;7.95;;;1.40;;
35919;SDS011;36160;53.370;-6.196;2022-11-21T11:36:12;7.97;;;1.48;;
35919;SDS011;36160;53.370;-6.196;2022-11-21T11:38:52;5.82;;;1.40;;
35919;SDS011;36160;53.370;-6.196;2022-11-21T11:48:08;7.15;;;1.30;;
35919;SDS011;36160;53.370;-6.196;2022-11-21T11:50:39;6.75;;;1.30;;
35919;SDS011;36160;53.370;-6.196;2022-11-21T11:55:51;8.25;;;1.38;;
35919;SDS011;36160;53.370;-6.196;2022-11-21T12:06:52;3.15;;;1.17;;
35919;SDS011;36160;53.370;-6.196;2022-11-21T12:11:57;8.00;;;1.20;;
35919;SDS011;36160;53.370;-6.196;2022-11-21T12:17:54;5.00;;;1.50;;
35919;SDS011;36160;53.370;-6.196;2022-11-21T12:23:21;7.55;;;1.80;;
35919;SDS011;36160;53.370;-6.196;2022-11-21T12:43:08;7.75;;;1.77;;
35919;SDS011;36160;53.370;-6.196;2022-11-21T12:45:44;3.53;;;1.73;;
35919;SDS011;36160;53.370;-6.196;2022-11-21T12:57:25;6.75;;;1.70;;
35919;SDS011;36160;53.370;-6.196;2022-11-21T13:00:21;12.52;;;2.20;;
35919;SDS011;36160;53.370;-6.196;2022-11-21T13:05:29;13.40;;;2.80;;
35919;SDS011;36160;53.370;-6.196;2022-11-21T13:08:02;17.98;;;2.75;;
35919;SDS011;36160;53.370;-6.196;2022-11-21T13:10:35;10.32;;;2.22;;
35919;SDS011;36160;53.370;-6.196;2022-11-21T13:15:48;13.57;;;4.63;;
35919;SDS011;36160;53.370;-6.196;2022-11-21T13:18:34;15.63;;;2.65;;
35919;SDS011;36160;53.370;-6.196;2022-11-21T13:21:08;16.63;;;2.92;;
35919;SDS011;36160;53.370;-6.196;2022-11-21T13:24:05;7.97;;;3.05;;
35919;SDS011;36160;53.370;-6.196;2022-11-21T13:29:10;11.88;;;2.45;;
35919;SDS011;36160;53.370;-6.196;2022-11-21T13:31:38;15.98;;;2.95;;
35919;SDS011;36160;53.370;-6.196;2022-11-21T13:34:08;12.65;;;3.05;;
35919;SDS011;36160;53.370;-6.196;2022-11-21T13:36:57;15.82;;;3.58;;
35919;SDS011;36160;53.370;-6.196;2022-11-21T13:39:27;12.68;;;3.05;;
35919;SDS011;36160;53.370;-6.196;2022-11-21T13:44:46;10.82;;;3.13;;
35919;SDS011;36160;53.370;-6.196;2022-11-21T13:50:33;14.25;;;2.92;;
35919;SDS011;36160;53.370;-6.196;2022-11-21T13:58:39;9.75;;;2.33;;
35919;SDS011;36160;53.370;-6.196;2022-11-21T14:04:23;10.48;;;2.65;;
35919;SDS011;36160;53.370;-6.196;2022-11-21T14:10:02;14.45;;;2.45;;
35919;SDS011;36160;53.370;-6.196;2022-11-21T14:12:41;12.23;;;2.20;;
35919;SDS011;36160;53.370;-6.196;2022-11-21T14:15:20;15.77;;;2.73;;
35919;SDS011;36160;53.370;-6.196;2022-11-21T14:18:03;19.70;;;2.47;;
35919;SDS011;36160;53.370;-6.196;2022-11-21T14:20:48;9.23;;;2.13;;
35919;SDS011;36160;53.370;-6.196;2022-11-21T14:23:19;16.30;;;2.08;;
35919;SDS011;36160;53.370;-6.196;2022-11-21T14:25:47;18.25;;;4.03;;
35919;SDS011;36160;53.370;-6.196;2022-11-21T14:28:33;9.73;;;2.08;;
35919;SDS011;36160;53.370;-6.196;2022-11-21T14:31:03;10.48;;;2.13;;
35919;SDS011;36160;53.370;-6.196;2022-11-21T14:33:33;14.07;;;2.50;;
35919;SDS011;36160;53.370;-6.196;2022-11-21T14:38:49;11.52;;;1.90;;
35919;SDS011;36160;53.370;-6.196;2022-11-21T14:43:42;14.02;;;2.97;;
35919;SDS011;36160;53.370;-6.196;2022-11-21T14:46:14;10.32;;;1.85;;
35919;SDS011;36160;53.370;-6.196;2022-11-21T14:48:43;11.93;;;2.70;;
35919;SDS011;36160;53.370;-6.196;2022-11-21T17:46:56;12.27;;;4.63;;
35919;SDS011;36160;53.370;-6.196;2022-11-21T17:49:23;14.05;;;4.63;;
35919;SDS011;36160;53.370;-6.196;2022-11-21T17:51:50;18.75;;;4.95;;
35919;SDS011;36160;53.370;-6.196;2022-11-21T17:54:16;11.57;;;4.43;;
35919;SDS011;36160;53.370;-6.196;2022-11-21T17:56:42;17.75;;;5.93;;
35919;SDS011;36160;53.370;-6.196;2022-11-21T17:59:10;15.40;;;5.20;;
35919;SDS011;36160;53.370;-6.196;2022-11-21T18:01:37;16.30;;;5.13;;
35919;SDS011;36160;53.370;-6.196;2022-11-21T18:04:03;20.77;;;6.80;;
35919;SDS011;36160;53.370;-6.196;2022-11-21T18:06:33;18.40;;;6.55;;
35919;SDS011;36160;53.370;-6.196;2022-11-21T18:09:01;22.83;;;6.57;;
35919;SDS011;36160;53.370;-6.196;2022-11-21T18:11:29;19.15;;;6.10;;
35919;SDS011;36160;53.370;-6.196;2022-11-21T18:13:57;14.13;;;6.72;;
35919;SDS011;36160;53.370;-6.196;2022-11-21T18:16:24;15.95;;;5.70;;
35919;SDS011;36160;53.370;-6.196;2022-11-21T18:18:51;15.80;;;6.35;;
35919;SDS011;36160;53.370;-6.196;2022-11-21T18:21:19;18.55;;;5.07;;
35919;SDS011;36160;53.370;-6.196;2022-11-21T18:23:46;15.43;;;5.55;;
35919;SDS011;36160;53.370;-6.196;2022-11-21T18:26:22;17.35;;;7.25;;
35919;SDS011;36160;53.370;-6.196;2022-11-21T18:29:58;21.00;;;7.38;;
35919;SDS011;36160;53.370;-6.196;2022-11-21T18:33:16;17.60;;;6.93;;
35919;SDS011;36160;53.370;-6.196;2022-11-21T18:36:29;12.25;;;5.97;;
35919;SDS011;36160;53.370;-6.196;2022-11-21T18:38:56;16.98;;;6.72;;
35919;SDS011;36160;53.370;-6.196;2022-11-21T18:41:27;17.13;;;5.00;;
35919;SDS011;36160;53.370;-6.196;2022-11-21T18:44:01;14.80;;;5.85;;
35919;SDS011;36160;53.370;-6.196;2022-11-21T18:46:29;17.33;;;5.40;;
35919;SDS011;36160;53.370;-6.196;2022-11-21T18:48:56;19.20;;;6.53;;
35919;SDS011;36160;53.370;-6.196;2022-11-21T18:51:23;17.42;;;6.38;;
35919;SDS011;36160;53.370;-6.196;2022-11-21T18:53:50;21.88;;;5.35;;
35919;SDS011;36160;53.370;-6.196;2022-11-21T18:56:19;14.70;;;6.03;;
35919;SDS011;36160;53.370;-6.196;2022-11-21T18:58:47;15.18;;;5.18;;
35919;SDS011;36160;53.370;-6.196;2022-11-21T19:01:14;20.63;;;5.93;;
35919;SDS011;36160;53.370;-6.196;2022-11-21T19:03:48;18.40;;;5.70;;
35919;SDS011;36160;53.370;-6.196;2022-11-21T19:06:15;13.02;;;5.63;;
35919;SDS011;36160;53.370;-6.196;2022-11-21T19:08:46;16.58;;;5.20;;
35919;SDS011;36160;53.370;-6.196;2022-11-21T19:11:14;16.85;;;5.70;;
35919;SDS011;36160;53.370;-6.196;2022-11-21T19:13:41;15.02;;;5.63;;
35919;SDS011;36160;53.370;-6.196;2022-11-21T19:16:11;15.57;;;6.28;;
35919;SDS011;36160;53.370;-6.196;2022-11-21T19:18:41;14.77;;;5.75;;
35919;SDS011;36160;53.370;-6.196;2022-11-21T19:21:08;21.90;;;7.38;;
35919;SDS011;36160;53.370;-6.196;2022-11-21T19:23:35;16.50;;;6.07;;
35919;SDS011;36160;53.370;-6.196;2022-11-21T19:26:07;18.52;;;5.78;;
35919;SDS011;36160;53.370;-6.196;2022-11-21T19:28:34;17.58;;;6.03;;
35919;SDS011;36160;53.370;-6.196;2022-11-21T19:31:01;17.33;;;4.90;;
35919;SDS011;36160;53.370;-6.196;2022-11-21T19:33:29;12.35;;;5.32;;
35919;SDS011;36160;53.370;-6.196;2022-11-21T19:35:59;14.02;;;5.03;;
35919;SDS011;36160;53.370;-6.196;2022-11-21T19:38:26;18.48;;;6.22;;